createdAt,value
2023-04-27T00:01:06.521Z,5.07
2023-04-27T00:03:34.196Z,4.40
2023-04-27T00:06:01.835Z,4.57
2023-04-27T00:08:29.173Z,4.57
2023-04-27T00:10:56.847Z,5.85
2023-04-27T00:13:24.057Z,6.40
2023-04-27T00:15:51.304Z,6.77
2023-04-27T00:18:18.844Z,5.49
2023-04-27T00:20:46.003Z,5.19
2023-04-27T00:23:13.192Z,6.12
2023-04-27T00:25:40.662Z,6.47
2023-04-27T00:28:08.747Z,6.40
2023-04-27T00:30:36.205Z,6.63
2023-04-27T00:33:03.820Z,4.87
2023-04-27T00:35:32.204Z,4.57
2023-04-27T00:37:59.470Z,4.58
2023-04-27T00:40:27.242Z,4.53
2023-04-27T00:42:54.388Z,4.39
2023-04-27T00:45:21.599Z,4.58
2023-04-27T00:47:49.081Z,4.19
2023-04-27T00:50:16.364Z,4.21
2023-04-27T00:52:43.514Z,4.44
2023-04-27T00:55:10.918Z,4.86
2023-04-27T00:57:40.563Z,4.90
2023-04-27T01:00:07.847Z,4.72
2023-04-27T01:02:35.587Z,4.51
2023-04-27T01:05:03.546Z,4.61
2023-04-27T01:07:30.787Z,4.68
2023-04-27T01:09:58.467Z,4.40
2023-04-27T01:12:26.161Z,4.30
2023-04-27T01:14:53.313Z,4.22
2023-04-27T01:17:20.778Z,4.26
2023-04-27T01:19:47.939Z,4.19
2023-04-27T01:22:17.544Z,4.21
2023-04-27T01:24:45.034Z,3.91
2023-04-27T01:27:12.676Z,3.76
2023-04-27T01:29:40.222Z,3.52
2023-04-27T01:32:09.251Z,3.53
2023-04-27T01:34:36.843Z,3.83
2023-04-27T01:37:04.591Z,3.78
2023-04-27T01:39:31.999Z,4.16
2023-04-27T01:42:00.715Z,3.66
2023-04-27T01:44:27.838Z,4.31
2023-04-27T01:46:55.306Z,4.01
2023-04-27T01:49:22.452Z,4.36
2023-04-27T01:51:49.695Z,3.92
2023-04-27T01:54:17.098Z,3.87
2023-04-27T01:56:44.253Z,3.73
2023-04-27T01:59:11.533Z,4.00
2023-04-27T02:01:39.220Z,3.96
2023-04-27T02:04:06.893Z,3.91
2023-04-27T02:06:34.245Z,3.94
2023-04-27T02:09:01.428Z,3.97
2023-04-27T02:11:28.883Z,3.77
2023-04-27T02:13:56.492Z,3.46
2023-04-27T02:16:31.196Z,3.85
2023-04-27T02:18:59.225Z,3.93
2023-04-27T02:21:26.505Z,4.74
2023-04-27T02:23:53.865Z,4.57
2023-04-27T02:26:22.106Z,3.87
2023-04-27T02:28:50.138Z,3.83
2023-04-27T02:31:17.745Z,3.51
2023-04-27T02:33:46.406Z,3.64
2023-04-27T02:36:14.896Z,3.38
2023-04-27T02:38:42.119Z,3.25
2023-04-27T02:41:10.473Z,3.51
2023-04-27T02:43:37.675Z,4.16
2023-04-27T02:46:05.522Z,3.27
2023-04-27T02:48:33.171Z,3.52
2023-04-27T02:51:02.861Z,4.68
2023-04-27T02:53:30.069Z,3.58
2023-04-27T02:55:58.471Z,3.60
2023-04-27T02:58:26.101Z,3.60
2023-04-27T03:00:56.963Z,3.60
2023-04-27T03:03:24.740Z,2.94
2023-04-27T03:05:52.091Z,3.02
2023-04-27T03:08:19.291Z,3.11
2023-04-27T03:10:46.805Z,3.08
2023-04-27T03:13:14.326Z,3.04
2023-04-27T03:15:43.970Z,3.43
2023-04-27T03:18:11.419Z,3.40
2023-04-27T03:20:38.602Z,3.21
2023-04-27T03:23:06.792Z,3.23
2023-04-27T03:25:34.333Z,3.33
2023-04-27T03:28:01.760Z,3.27
2023-04-27T03:30:28.952Z,3.03
2023-04-27T03:32:56.572Z,3.15
2023-04-27T03:35:24.388Z,3.45
2023-04-27T03:37:51.512Z,3.16
2023-04-27T03:40:18.957Z,3.40
2023-04-27T03:42:46.223Z,3.12
2023-04-27T03:45:13.501Z,3.20
2023-04-27T03:47:41.268Z,3.31
2023-04-27T03:50:08.735Z,2.78
2023-04-27T03:52:35.902Z,2.87
2023-04-27T03:55:04.305Z,2.87
2023-04-27T03:57:33.055Z,3.23
2023-04-27T04:00:00.504Z,3.46
2023-04-27T04:02:28.063Z,3.71
2023-04-27T04:04:55.834Z,3.53
2023-04-27T04:07:23.255Z,3.11
2023-04-27T04:09:50.600Z,3.09
2023-04-27T04:12:18.763Z,2.92
2023-04-27T04:14:48.915Z,3.09
2023-04-27T04:17:16.605Z,3.01
2023-04-27T04:19:44.033Z,2.95
2023-04-27T04:22:11.971Z,2.88
2023-04-27T04:24:40.242Z,2.76
2023-04-27T04:27:07.910Z,3.04
2023-04-27T04:29:35.106Z,3.20
2023-04-27T04:32:02.447Z,3.20
2023-04-27T04:34:30.481Z,3.32
2023-04-27T04:36:58.130Z,3.21
2023-04-27T04:39:27.003Z,3.42
2023-04-27T04:41:54.546Z,3.35
2023-04-27T04:44:22.305Z,3.61
2023-04-27T04:46:50.195Z,3.84
2023-04-27T04:49:18.002Z,4.00
2023-04-27T04:51:45.648Z,4.15
2023-04-27T04:54:12.888Z,4.42
2023-04-27T04:56:40.374Z,4.85
2023-04-27T04:59:07.986Z,4.71
2023-04-27T05:01:35.150Z,4.33
2023-04-27T05:04:02.958Z,4.22
2023-04-27T05:06:30.323Z,4.19
2023-04-27T05:08:57.704Z,4.87
2023-04-27T05:11:25.295Z,4.58
2023-04-27T05:13:52.473Z,5.02
2023-04-27T05:16:19.665Z,4.85
2023-04-27T05:18:47.088Z,5.15
2023-04-27T05:21:17.763Z,5.09
2023-04-27T05:23:44.922Z,5.06
2023-04-27T05:26:15.632Z,5.10
2023-04-27T05:28:42.828Z,5.34
2023-04-27T05:31:10.096Z,5.51
2023-04-27T05:33:37.639Z,6.24
2023-04-27T05:36:05.152Z,6.80
2023-04-27T05:38:33.495Z,6.58
2023-04-27T05:41:00.932Z,6.16
2023-04-27T05:43:28.099Z,6.57
2023-04-27T05:45:55.296Z,6.45
2023-04-27T05:48:22.847Z,6.44
2023-04-27T05:50:49.989Z,6.79
2023-04-27T05:53:17.303Z,6.78
2023-04-27T05:55:44.740Z,7.32
2023-04-27T05:58:11.974Z,7.18
2023-04-27T06:00:39.193Z,6.94
2023-04-27T06:03:07.259Z,6.94
2023-04-27T06:05:34.867Z,7.81
2023-04-27T06:08:02.163Z,7.81
2023-04-27T06:10:29.749Z,8.50
2023-04-27T06:12:56.916Z,8.01
2023-04-27T06:15:24.075Z,8.45
2023-04-27T06:17:51.589Z,9.20
2023-04-27T06:20:18.782Z,8.81
2023-04-27T06:22:46.911Z,8.61
2023-04-27T06:25:14.532Z,8.20
2023-04-27T06:27:41.904Z,8.67
2023-04-27T06:30:09.396Z,8.96
2023-04-27T06:32:36.842Z,9.22
2023-04-27T06:35:04.133Z,9.67
2023-04-27T06:37:31.337Z,9.75
2023-04-27T06:39:58.920Z,10.30
2023-04-27T06:42:27.057Z,10.41
2023-04-27T06:44:55.916Z,10.67
2023-04-27T06:47:23.481Z,10.63
2023-04-27T06:49:51.273Z,11.11
2023-04-27T06:52:18.494Z,10.78
2023-04-27T06:54:46.052Z,11.44
2023-04-27T06:57:13.386Z,11.32
2023-04-27T06:59:40.680Z,11.69
2023-04-27T07:02:09.195Z,11.11
2023-04-27T07:04:38.276Z,11.86
2023-04-27T07:07:05.851Z,13.46
2023-04-27T07:09:33.560Z,15.03
2023-04-27T07:12:01.597Z,16.48
2023-04-27T07:14:28.750Z,18.19
2023-04-27T07:16:56.494Z,19.59
2023-04-27T07:19:23.701Z,20.56
2023-04-27T07:21:50.919Z,20.68
2023-04-27T07:24:18.336Z,21.51
2023-04-27T07:26:45.594Z,20.40
2023-04-27T07:31:44.196Z,15.56
2023-04-27T07:34:11.456Z,15.30
2023-04-27T07:36:38.607Z,16.08
2023-04-27T07:39:06.417Z,16.25
2023-04-27T07:41:34.672Z,16.83
2023-04-27T07:44:02.551Z,17.70
2023-04-27T07:46:31.757Z,18.75
2023-04-27T07:49:00.418Z,19.43
2023-04-27T07:51:29.349Z,19.11
2023-04-27T07:53:56.827Z,19.60
2023-04-27T07:56:24.102Z,20.10
2023-04-27T07:58:51.749Z,18.00
2023-04-27T08:01:21.302Z,16.63
2023-04-27T08:03:49.171Z,16.12
2023-04-27T08:06:17.169Z,14.47
2023-04-27T08:08:44.521Z,12.98
2023-04-27T08:11:12.159Z,13.93
2023-04-27T08:13:39.357Z,15.65
2023-04-27T08:16:07.054Z,15.39
2023-04-27T08:18:34.620Z,14.71
2023-04-27T08:21:01.852Z,14.51
2023-04-27T08:23:29.463Z,12.77
2023-04-27T08:25:57.624Z,12.72
2023-04-27T08:28:25.121Z,13.07
2023-04-27T08:30:52.324Z,13.08
2023-04-27T08:33:19.932Z,12.92
2023-04-27T08:35:47.135Z,12.70
2023-04-27T08:38:14.280Z,11.78
2023-04-27T08:40:44.969Z,11.64
2023-04-27T08:43:12.194Z,12.07
2023-04-27T08:45:40.697Z,13.96
2023-04-27T08:48:08.290Z,12.70
2023-04-27T08:50:36.314Z,14.31
2023-04-27T08:53:03.443Z,15.15
2023-04-27T08:55:30.851Z,15.48
2023-04-27T08:57:58.424Z,16.35
2023-04-27T09:00:26.233Z,16.82
2023-04-27T09:02:53.802Z,16.15
2023-04-27T09:05:22.171Z,15.04
2023-04-27T09:07:59.119Z,16.18
2023-04-27T09:10:29.335Z,14.21
2023-04-27T09:13:01.041Z,16.12
2023-04-27T09:15:29.334Z,16.08
2023-04-27T09:17:56.941Z,16.34
2023-04-27T09:20:24.410Z,15.58
2023-04-27T09:22:52.980Z,15.57
2023-04-27T09:25:23.602Z,16.80
2023-04-27T09:27:50.924Z,16.25
2023-04-27T09:30:18.971Z,15.41
2023-04-27T09:32:51.431Z,15.94
2023-04-27T09:35:22.947Z,15.18
2023-04-27T09:37:52.153Z,14.70
2023-04-27T09:40:20.506Z,15.89
2023-04-27T09:42:47.808Z,14.86
2023-04-27T09:45:15.090Z,15.88
2023-04-27T09:47:42.883Z,15.90
2023-04-27T09:50:10.275Z,15.77
2023-04-27T09:52:38.432Z,13.91
2023-04-27T09:55:07.045Z,14.12
2023-04-27T09:57:39.546Z,13.54
2023-04-27T10:00:10.830Z,14.24
2023-04-27T10:02:52.667Z,14.03
2023-04-27T10:05:36.860Z,14.67
2023-04-27T10:08:05.039Z,15.70
2023-04-27T10:10:41.996Z,15.23
2023-04-27T10:13:09.579Z,14.28
2023-04-27T10:15:39.656Z,15.08
2023-04-27T10:18:07.393Z,14.71
2023-04-27T10:20:36.393Z,14.70
2023-04-27T10:23:03.708Z,15.83
2023-04-27T10:25:41.406Z,16.43
2023-04-27T10:28:14.986Z,16.22
2023-04-27T10:30:45.326Z,16.75
2023-04-27T10:33:15.587Z,16.93
2023-04-27T10:35:43.327Z,16.46
2023-04-27T10:38:17.580Z,15.98
2023-04-27T10:40:46.123Z,15.04
2023-04-27T10:43:17.664Z,16.16
2023-04-27T10:45:45.459Z,15.61
2023-04-27T10:48:15.651Z,15.44
2023-04-27T10:50:44.883Z,15.08
2023-04-27T10:53:12.707Z,14.33
2023-04-27T10:55:39.956Z,14.51
2023-04-27T10:58:07.203Z,14.92
2023-04-27T11:00:44.883Z,15.31
2023-04-27T11:03:14.549Z,15.34
2023-04-27T11:05:46.244Z,15.69
2023-04-27T11:08:14.903Z,15.57
2023-04-27T11:10:52.006Z,15.67
2023-04-27T11:13:20.254Z,15.71
2023-04-27T11:15:49.100Z,16.18
2023-04-27T11:18:17.567Z,16.17
2023-04-27T11:20:47.642Z,15.65
2023-04-27T11:23:25.839Z,15.86
2023-04-27T11:25:53.082Z,16.38
2023-04-27T11:28:21.453Z,16.25
2023-04-27T11:30:55.848Z,14.78
2023-04-27T11:33:23.372Z,14.81
2023-04-27T11:35:50.518Z,14.82
2023-04-27T11:38:18.962Z,15.08
2023-04-27T11:40:46.858Z,15.81
2023-04-27T11:43:14.153Z,15.18
2023-04-27T11:45:45.025Z,16.09
2023-04-27T11:48:15.676Z,15.20
2023-04-27T11:50:49.405Z,15.29
2023-04-27T11:53:18.857Z,15.23
2023-04-27T11:55:51.780Z,16.11
2023-04-27T11:58:19.955Z,16.23
2023-04-27T12:00:47.708Z,15.19
2023-04-27T12:03:15.302Z,15.21
2023-04-27T12:05:53.049Z,15.24
2023-04-27T12:08:20.735Z,15.84
2023-04-27T12:10:47.926Z,15.04
2023-04-27T12:13:15.070Z,15.89
2023-04-27T12:15:43.807Z,16.19
2023-04-27T12:18:10.968Z,16.59
2023-04-27T12:20:38.347Z,16.59
2023-04-27T12:23:06.163Z,16.40
2023-04-27T12:25:33.339Z,16.44
2023-04-27T12:28:00.569Z,15.67
2023-04-27T12:30:28.100Z,15.61
2023-04-27T12:32:55.542Z,15.93
2023-04-27T12:35:22.784Z,16.04
2023-04-27T12:37:50.243Z,16.75
2023-04-27T12:40:17.402Z,15.65
2023-04-27T12:42:44.644Z,16.04
2023-04-27T12:45:12.158Z,16.35
2023-04-27T12:47:58.355Z,16.02
2023-04-27T12:50:27.701Z,16.46
2023-04-27T12:52:54.911Z,15.46
2023-04-27T12:55:32.034Z,15.64
2023-04-27T12:58:01.154Z,15.58
2023-04-27T13:00:29.841Z,15.67
2023-04-27T13:02:57.574Z,16.14
2023-04-27T13:05:26.040Z,16.05
2023-04-27T13:07:53.389Z,15.12
2023-04-27T13:10:20.749Z,15.46
2023-04-27T13:12:48.230Z,15.36
2023-04-27T13:15:15.428Z,15.46
2023-04-27T13:17:43.841Z,15.33
2023-04-27T13:20:11.969Z,15.69
2023-04-27T13:22:40.719Z,16.30
2023-04-27T13:25:09.490Z,15.44
2023-04-27T13:27:36.970Z,14.83
2023-04-27T13:30:05.299Z,15.17
2023-04-27T13:32:32.914Z,15.75
2023-04-27T13:35:00.716Z,16.02
2023-04-27T13:37:27.937Z,15.70
2023-04-27T13:39:55.403Z,15.74
2023-04-27T13:42:29.086Z,15.57
2023-04-27T13:44:59.437Z,15.94
2023-04-27T13:47:29.210Z,15.89
2023-04-27T13:49:56.400Z,16.30
2023-04-27T13:52:23.586Z,16.12
2023-04-27T13:54:51.182Z,16.29
2023-04-27T13:57:18.364Z,15.37
2023-04-27T13:59:45.794Z,15.69
2023-04-27T14:02:13.365Z,15.84
2023-04-27T14:04:40.883Z,16.35
2023-04-27T14:07:09.268Z,15.97
2023-04-27T14:09:36.539Z,15.94
2023-04-27T14:12:04.444Z,15.74
2023-04-27T14:14:31.656Z,15.85
2023-04-27T14:16:59.014Z,15.73
2023-04-27T14:19:27.418Z,15.98
2023-04-27T14:21:56.140Z,16.16
2023-04-27T14:24:23.313Z,15.78
2023-04-27T14:26:51.219Z,16.11
2023-04-27T14:29:19.036Z,16.59
2023-04-27T14:31:47.069Z,16.24
2023-04-27T14:34:14.700Z,15.79
2023-04-27T14:36:41.829Z,15.46
2023-04-27T14:39:09.699Z,15.64
2023-04-27T14:41:40.053Z,15.90
2023-04-27T14:44:07.717Z,15.85
2023-04-27T14:46:34.971Z,15.83
2023-04-27T14:49:02.568Z,15.90
2023-04-27T14:51:29.713Z,15.79
2023-04-27T14:53:57.231Z,15.68
2023-04-27T14:56:24.907Z,14.92
2023-04-27T14:58:52.045Z,15.51
2023-04-27T15:01:19.286Z,15.51
2023-04-27T15:03:46.897Z,15.83
2023-04-27T15:06:14.358Z,15.90
2023-04-27T15:08:41.623Z,16.24
2023-04-27T15:11:09.089Z,16.53
2023-04-27T15:13:36.635Z,16.33
2023-04-27T15:16:05.122Z,16.18
2023-04-27T15:18:32.668Z,15.99
2023-04-27T15:20:59.951Z,16.04
2023-04-27T15:23:27.287Z,16.39
2023-04-27T15:25:55.404Z,15.91
2023-04-27T15:28:22.622Z,16.08
2023-04-27T15:30:49.807Z,15.90
2023-04-27T15:33:17.494Z,15.86
2023-04-27T15:35:44.774Z,16.53
2023-04-27T15:38:12.603Z,15.76
2023-04-27T15:40:40.084Z,16.03
2023-04-27T15:43:07.399Z,15.89
2023-04-27T15:45:34.857Z,15.78
2023-04-27T15:48:02.383Z,15.17
2023-04-27T15:50:29.700Z,15.43
2023-04-27T15:52:56.994Z,15.67
2023-04-27T15:55:24.526Z,15.59
2023-04-27T15:57:51.687Z,15.99
2023-04-27T16:00:22.033Z,16.80
2023-04-27T16:02:49.691Z,16.38
2023-04-27T16:05:17.002Z,15.96
2023-04-27T16:07:44.476Z,15.32
2023-04-27T16:10:12.223Z,15.40
2023-04-27T16:12:39.622Z,15.42
2023-04-27T16:15:10.074Z,15.57
2023-04-27T16:17:38.708Z,15.99
2023-04-27T16:20:09.741Z,16.06
2023-04-27T16:22:37.193Z,15.96
2023-04-27T16:25:06.627Z,15.67
2023-04-27T16:27:34.403Z,15.78
2023-04-27T16:30:01.677Z,15.50
2023-04-27T16:32:29.324Z,15.69
2023-04-27T16:34:56.522Z,15.51
2023-04-27T16:37:23.712Z,15.60
2023-04-27T16:39:51.144Z,15.68
2023-04-27T16:42:21.533Z,15.31
2023-04-27T16:44:48.741Z,15.54
2023-04-27T16:47:16.141Z,15.17
2023-04-27T16:49:44.311Z,15.19
2023-04-27T16:52:11.841Z,15.29
2023-04-27T16:54:39.227Z,15.19
2023-04-27T16:57:07.851Z,15.18
2023-04-27T16:59:35.079Z,14.90
2023-04-27T17:02:16.377Z,14.75
2023-04-27T17:04:49.910Z,14.40
2023-04-27T17:07:18.431Z,14.49
2023-04-27T17:09:45.759Z,14.63
2023-04-27T17:12:14.645Z,14.43
2023-04-27T17:14:42.671Z,14.61
2023-04-27T17:17:10.137Z,14.88
2023-04-27T17:19:37.360Z,15.09
2023-04-27T17:22:04.798Z,15.25
2023-04-27T17:24:32.057Z,15.31
2023-04-27T17:26:59.215Z,15.67
2023-04-27T17:29:26.777Z,15.44
2023-04-27T17:31:53.922Z,15.52
2023-04-27T17:34:21.682Z,15.05
2023-04-27T17:36:49.141Z,15.16
2023-04-27T17:39:16.423Z,15.18
2023-04-27T17:41:44.289Z,14.41
2023-04-27T17:44:12.644Z,14.69
2023-04-27T17:46:45.005Z,14.57
2023-04-27T17:49:13.106Z,14.58
2023-04-27T17:51:40.646Z,14.32
2023-04-27T17:54:07.824Z,14.54
2023-04-27T17:56:35.211Z,15.20
2023-04-27T17:59:03.201Z,14.61
2023-04-27T18:01:30.679Z,14.43
2023-04-27T18:04:02.973Z,14.53
2023-04-27T18:06:32.124Z,14.65
2023-04-27T18:08:59.717Z,14.75
2023-04-27T18:11:27.076Z,14.68
2023-04-27T18:13:54.870Z,14.20
2023-04-27T18:16:22.381Z,14.38
2023-04-27T18:18:50.246Z,14.19
2023-04-27T18:21:17.587Z,14.26
2023-04-27T18:23:44.967Z,13.95
2023-04-27T18:26:12.490Z,13.59
2023-04-27T18:28:42.046Z,12.79
2023-04-27T18:31:16.221Z,12.51
2023-04-27T18:33:43.858Z,12.31
2023-04-27T18:36:11.292Z,12.29
2023-04-27T18:38:39.134Z,12.02
2023-04-27T18:41:06.946Z,11.85
2023-04-27T18:43:35.749Z,11.79
2023-04-27T18:46:03.532Z,11.98
2023-04-27T18:48:31.265Z,12.14
2023-04-27T18:50:58.913Z,12.18
2023-04-27T18:53:27.131Z,12.10
2023-04-27T18:55:54.404Z,11.60
2023-04-27T18:58:22.219Z,11.40
2023-04-27T19:00:49.601Z,11.14
2023-04-27T19:03:16.938Z,11.28
2023-04-27T19:05:44.903Z,11.53
2023-04-27T19:08:12.122Z,11.10
2023-04-27T19:10:41.845Z,10.55
2023-04-27T19:13:10.113Z,10.20
2023-04-27T19:15:37.336Z,9.98
2023-04-27T19:18:10.619Z,9.79
2023-04-27T19:20:40.323Z,9.99
2023-04-27T19:23:09.597Z,9.93
2023-04-27T19:25:37.465Z,10.11
2023-04-27T19:28:05.861Z,10.09
2023-04-27T19:30:34.207Z,10.10
2023-04-27T19:33:02.211Z,10.06
2023-04-27T19:35:30.510Z,9.70
2023-04-27T19:37:58.316Z,9.30
2023-04-27T19:40:26.537Z,9.31
2023-04-27T19:42:54.500Z,9.09
2023-04-27T19:45:23.637Z,9.13
2023-04-27T19:47:51.020Z,9.08
2023-04-27T19:50:20.254Z,9.28
2023-04-27T19:52:48.224Z,9.48
2023-04-27T19:55:15.703Z,8.88
2023-04-27T19:57:44.142Z,8.73
2023-04-27T20:00:12.595Z,8.47
2023-04-27T20:02:40.766Z,8.91
2023-04-27T20:05:09.040Z,8.66
2023-04-27T20:07:37.421Z,8.71
2023-04-27T20:10:05.622Z,8.42
2023-04-27T20:12:51.484Z,8.25
2023-04-27T20:15:20.277Z,8.19
2023-04-27T20:17:47.912Z,8.03
2023-04-27T20:20:15.141Z,8.15
2023-04-27T20:22:42.299Z,8.01
2023-04-27T20:25:09.699Z,7.92
2023-04-27T20:27:36.845Z,7.78
2023-04-27T20:30:04.369Z,7.48
2023-04-27T20:32:31.820Z,7.29
2023-04-27T20:35:01.449Z,7.38
2023-04-27T20:37:29.452Z,7.57
2023-04-27T20:39:56.856Z,7.42
2023-04-27T20:42:24.643Z,7.17
2023-04-27T20:44:54.897Z,7.55
2023-04-27T20:47:22.591Z,7.35
2023-04-27T20:49:49.784Z,7.80
2023-04-27T20:52:17.013Z,7.92
2023-04-27T20:54:44.422Z,7.87
2023-04-27T20:57:14.238Z,7.20
2023-04-27T20:59:41.608Z,7.01
2023-04-27T21:02:09.118Z,6.89
2023-04-27T21:04:36.438Z,6.71
2023-04-27T21:07:03.819Z,6.65
2023-04-27T21:09:31.488Z,6.95
2023-04-27T21:11:58.631Z,6.78
2023-04-27T21:14:25.970Z,6.73
2023-04-27T21:16:53.480Z,6.52
2023-04-27T21:19:20.706Z,6.54
2023-04-27T21:21:47.880Z,6.43
2023-04-27T21:24:15.373Z,6.32
2023-04-27T21:26:42.551Z,6.23
2023-04-27T21:29:09.693Z,6.42
2023-04-27T21:31:37.387Z,6.48
2023-04-27T21:34:04.649Z,6.30
2023-04-27T21:36:32.184Z,6.40
2023-04-27T21:38:59.636Z,6.10
2023-04-27T21:41:26.810Z,6.08
2023-04-27T21:43:54.095Z,6.09
2023-04-27T21:46:22.979Z,5.82
2023-04-27T21:48:50.260Z,5.85
2023-04-27T21:51:17.469Z,5.77
2023-04-27T21:53:44.967Z,5.62
2023-04-27T21:56:12.119Z,5.62
2023-04-27T21:59:19.485Z,5.54
2023-04-27T22:01:47.310Z,5.67
2023-04-27T22:04:16.687Z,5.52
2023-04-27T22:06:44.678Z,5.47
2023-04-27T22:09:12.336Z,5.55
2023-04-27T22:11:39.912Z,5.61
2023-04-27T22:14:07.069Z,5.68
2023-04-27T22:16:34.326Z,5.64
2023-04-27T22:19:01.783Z,5.66
2023-04-27T22:21:28.934Z,5.70
2023-04-27T22:23:56.095Z,5.57
2023-04-27T22:26:23.569Z,5.48
2023-04-27T22:28:50.712Z,5.55
2023-04-27T22:31:17.990Z,5.65
2023-04-27T22:33:45.405Z,5.41
2023-04-27T22:36:12.513Z,5.59
2023-04-27T22:38:39.637Z,5.52
2023-04-27T22:41:07.469Z,5.43
2023-04-27T22:43:34.621Z,5.44
2023-04-27T22:46:01.797Z,5.54
2023-04-27T22:48:29.199Z,5.45
2023-04-27T22:50:56.334Z,5.61
2023-04-27T22:53:23.445Z,6.08
2023-04-27T22:55:51.053Z,6.19
2023-04-27T22:58:18.448Z,6.76
2023-04-27T23:00:45.851Z,6.12
2023-04-27T23:03:15.550Z,5.78
2023-04-27T23:05:43.292Z,5.75
2023-04-27T23:08:10.409Z,5.47
2023-04-27T23:10:38.926Z,5.51
2023-04-27T23:13:07.287Z,5.44
2023-04-27T23:15:34.499Z,5.30
2023-04-27T23:18:02.107Z,5.26
2023-04-27T23:20:29.489Z,5.39
2023-04-27T23:22:56.719Z,5.19
2023-04-27T23:25:24.192Z,5.13
2023-04-27T23:27:52.600Z,5.05
2023-04-27T23:30:20.503Z,5.20
2023-04-27T23:32:47.961Z,5.21
2023-04-27T23:35:15.209Z,5.09
2023-04-27T23:37:42.378Z,4.89
2023-04-27T23:40:10.150Z,4.87
2023-04-27T23:42:37.310Z,4.83
2023-04-27T23:45:05.003Z,4.96
2023-04-27T23:47:34.204Z,4.98
2023-04-27T23:50:02.961Z,5.09
2023-04-27T23:52:30.123Z,5.07
2023-04-27T23:54:57.845Z,4.91
2023-04-27T23:57:25.113Z,4.77
2023-04-27T23:59:52.306Z,4.75
